createdAt,value
2017-11-18T00:00:35.985Z,89.92
2017-11-18T00:03:03.387Z,89.71
2017-11-18T00:05:30.793Z,89.79
2017-11-18T00:07:58.187Z,89.82
2017-11-18T00:10:25.599Z,89.77
2017-11-18T00:12:52.999Z,89.82
2017-11-18T00:15:20.408Z,89.86
2017-11-18T00:17:47.799Z,89.81
2017-11-18T00:20:15.206Z,89.80
2017-11-18T00:22:42.624Z,89.78
2017-11-18T00:25:10.012Z,89.85
2017-11-18T00:27:37.444Z,89.77
2017-11-18T00:30:04.827Z,89.81
2017-11-18T00:32:32.233Z,89.75
2017-11-18T00:34:59.636Z,89.65
2017-11-18T00:37:27.047Z,89.65
2017-11-18T00:39:54.444Z,89.59
2017-11-18T00:42:21.834Z,89.59
2017-11-18T00:44:49.236Z,89.64
2017-11-18T00:47:16.624Z,89.64
2017-11-18T00:49:44.019Z,89.63
2017-11-18T00:52:11.412Z,89.57
2017-11-18T00:54:38.827Z,89.52
2017-11-18T00:57:06.224Z,89.53
2017-11-18T00:59:33.646Z,89.43
2017-11-18T01:02:01.043Z,89.31
2017-11-18T01:04:28.427Z,89.33
2017-11-18T01:06:55.881Z,89.26
2017-11-18T01:09:23.277Z,89.28
2017-11-18T01:11:50.667Z,89.26
2017-11-18T01:14:18.075Z,89.27
2017-11-18T01:16:45.493Z,89.27
2017-11-18T01:19:12.872Z,89.11
2017-11-18T01:21:40.280Z,89.09
2017-11-18T01:24:07.675Z,89.02
2017-11-18T01:26:35.067Z,88.75
2017-11-18T01:29:02.460Z,88.79
2017-11-18T01:31:29.847Z,88.63
2017-11-18T01:33:57.244Z,88.49
2017-11-18T01:36:24.627Z,88.19
2017-11-18T01:38:52.031Z,88.22
2017-11-18T01:41:19.426Z,88.18
2017-11-18T01:43:46.827Z,88.03
2017-11-18T01:46:14.227Z,88.07
2017-11-18T01:48:41.635Z,88.05
2017-11-18T01:51:09.024Z,88.20
2017-11-18T01:53:36.421Z,88.29
2017-11-18T01:56:03.821Z,88.45
2017-11-18T01:58:31.224Z,88.59
2017-11-18T02:00:58.624Z,88.68
2017-11-18T02:03:26.108Z,88.71
2017-11-18T02:05:53.485Z,88.68
2017-11-18T02:08:20.887Z,88.60
2017-11-18T02:10:48.336Z,88.49
2017-11-18T02:13:15.737Z,88.51
2017-11-18T02:15:43.129Z,88.57
2017-11-18T02:18:10.543Z,88.50
2017-11-18T02:20:37.976Z,88.62
2017-11-18T02:23:05.389Z,88.26
2017-11-18T02:25:32.824Z,88.45
2017-11-18T02:28:00.233Z,88.45
2017-11-18T02:30:27.674Z,88.42
2017-11-18T02:32:55.068Z,88.34
2017-11-18T02:35:22.468Z,88.55
2017-11-18T02:37:49.894Z,88.47
2017-11-18T02:40:17.295Z,88.47
2017-11-18T02:42:44.708Z,88.57
2017-11-18T02:45:12.129Z,88.60
2017-11-18T02:47:39.550Z,88.55
2017-11-18T02:50:06.945Z,88.41
2017-11-18T02:52:34.359Z,88.58
2017-11-18T02:55:01.756Z,88.84
2017-11-18T02:57:29.147Z,88.80
2017-11-18T02:59:56.567Z,88.87
2017-11-18T03:02:23.969Z,88.91
2017-11-18T03:04:51.374Z,88.93
2017-11-18T03:07:18.785Z,88.80
2017-11-18T03:09:46.179Z,88.61
2017-11-18T03:12:13.583Z,88.43
2017-11-18T03:14:40.980Z,88.19
2017-11-18T03:17:08.426Z,87.79
2017-11-18T03:19:35.846Z,87.43
2017-11-18T03:22:03.257Z,87.30
2017-11-18T03:24:30.664Z,87.41
2017-11-18T03:26:58.060Z,87.06
2017-11-18T03:29:25.485Z,87.29
2017-11-18T03:31:52.892Z,87.26
2017-11-18T03:34:20.288Z,87.33
2017-11-18T03:36:47.687Z,86.97
2017-11-18T03:39:15.101Z,87.16
2017-11-18T03:41:42.510Z,87.36
2017-11-18T03:44:09.941Z,87.54
2017-11-18T03:46:37.344Z,87.76
2017-11-18T03:49:04.736Z,87.90
2017-11-18T03:51:32.153Z,87.93
2017-11-18T03:53:59.543Z,87.82
2017-11-18T03:56:26.971Z,87.94
2017-11-18T03:58:54.372Z,88.01
2017-11-18T04:01:21.781Z,88.03
2017-11-18T04:03:49.260Z,88.21
2017-11-18T04:06:16.657Z,88.30
2017-11-18T04:08:44.087Z,88.14
2017-11-18T04:11:11.496Z,88.04
2017-11-18T04:13:38.923Z,88.16
2017-11-18T04:16:06.336Z,88.50
2017-11-18T04:18:33.731Z,88.65
2017-11-18T04:21:01.139Z,88.76
2017-11-18T04:23:28.544Z,88.52
2017-11-18T04:25:55.981Z,88.59
2017-11-18T04:28:23.377Z,88.72
2017-11-18T04:30:50.789Z,88.81
2017-11-18T04:33:18.181Z,89.08
2017-11-18T04:35:45.588Z,89.27
2017-11-18T04:38:13.011Z,89.33
2017-11-18T04:40:40.411Z,89.32
2017-11-18T04:43:07.817Z,89.51
2017-11-18T04:45:35.223Z,89.56
2017-11-18T04:48:02.642Z,89.52
2017-11-18T04:50:30.092Z,89.49
2017-11-18T04:52:57.492Z,89.49
2017-11-18T04:55:24.899Z,89.49
2017-11-18T04:57:52.304Z,89.76
2017-11-18T05:00:19.692Z,89.76
2017-11-18T05:02:47.110Z,89.82
2017-11-18T05:05:14.506Z,89.64
2017-11-18T05:07:41.908Z,89.73
2017-11-18T05:10:09.362Z,90.01
2017-11-18T05:12:36.785Z,90.22
2017-11-18T05:15:04.192Z,90.48
2017-11-18T05:17:31.612Z,90.52
2017-11-18T05:19:59.020Z,90.46
2017-11-18T05:22:26.424Z,90.35
2017-11-18T05:24:53.821Z,90.53
2017-11-18T05:27:21.220Z,90.74
2017-11-18T05:29:48.639Z,90.81
2017-11-18T05:32:16.041Z,90.94
2017-11-18T05:34:43.435Z,90.90
2017-11-18T05:37:10.855Z,90.92
2017-11-18T05:39:38.258Z,90.86
2017-11-18T05:42:05.675Z,90.88
2017-11-18T05:44:33.116Z,90.79
2017-11-18T05:47:00.549Z,90.84
2017-11-18T05:49:27.956Z,90.72
2017-11-18T05:51:55.348Z,90.31
2017-11-18T05:54:22.755Z,90.21
2017-11-18T05:56:50.205Z,90.08
2017-11-18T05:59:17.940Z,89.80
2017-11-18T06:01:45.343Z,89.29
2017-11-18T06:04:12.761Z,89.32
2017-11-18T06:06:40.169Z,89.44
2017-11-18T06:09:07.567Z,89.14
2017-11-18T06:11:34.989Z,89.01
2017-11-18T06:14:02.393Z,89.09
2017-11-18T06:16:29.822Z,89.18
2017-11-18T06:18:57.230Z,89.11
2017-11-18T06:21:24.652Z,88.95
2017-11-18T06:23:52.099Z,89.01
2017-11-18T06:26:19.513Z,88.82
2017-11-18T06:28:46.953Z,88.76
2017-11-18T06:31:14.375Z,88.29
2017-11-18T06:33:41.795Z,88.01
2017-11-18T06:36:09.195Z,87.80
2017-11-18T06:38:36.616Z,87.73
2017-11-18T06:41:04.063Z,87.87
2017-11-18T06:43:31.466Z,87.85
2017-11-18T06:45:58.915Z,88.07
2017-11-18T06:48:26.329Z,88.10
2017-11-18T06:50:53.744Z,88.09
2017-11-18T06:53:21.152Z,88.22
2017-11-18T06:55:48.583Z,88.32
2017-11-18T06:58:15.993Z,88.11
2017-11-18T07:00:43.407Z,87.97
2017-11-18T07:03:10.836Z,87.60
2017-11-18T07:05:38.272Z,87.63
2017-11-18T07:08:05.679Z,87.65
2017-11-18T07:10:33.080Z,87.75
2017-11-18T07:13:00.491Z,87.88
2017-11-18T07:15:27.914Z,87.99
2017-11-18T07:17:55.369Z,87.87
2017-11-18T07:20:22.808Z,87.67
2017-11-18T07:22:50.208Z,87.66
2017-11-18T07:25:17.692Z,87.17
2017-11-18T07:27:45.099Z,87.34
2017-11-18T07:30:12.795Z,87.34
2017-11-18T07:32:40.204Z,87.41
2017-11-18T07:35:07.629Z,87.56
2017-11-18T07:37:35.085Z,87.63
2017-11-18T07:40:02.507Z,87.67
2017-11-18T07:42:29.976Z,87.01
2017-11-18T07:44:57.372Z,87.25
2017-11-18T07:47:24.775Z,87.42
2017-11-18T07:49:52.185Z,87.19
2017-11-18T07:52:19.592Z,86.99
2017-11-18T07:54:47.028Z,86.92
2017-11-18T07:57:14.432Z,87.05
2017-11-18T07:59:41.842Z,87.06
2017-11-18T08:02:09.252Z,87.08
2017-11-18T08:04:36.696Z,86.63
2017-11-18T08:07:04.098Z,86.39
2017-11-18T08:09:31.515Z,86.67
2017-11-18T08:11:58.936Z,86.98
2017-11-18T08:14:26.321Z,86.95
2017-11-18T08:16:53.716Z,86.03
2017-11-18T08:19:21.111Z,85.53
2017-11-18T08:21:48.523Z,85.48
2017-11-18T08:24:15.949Z,85.12
2017-11-18T08:26:43.356Z,84.71
2017-11-18T08:29:10.789Z,84.88
2017-11-18T08:31:38.167Z,83.16
2017-11-18T08:34:05.571Z,83.28
2017-11-18T08:36:36.729Z,82.28
2017-11-18T08:39:05.049Z,82.00
2017-11-18T08:41:32.488Z,81.98
2017-11-18T08:44:00.122Z,81.34
2017-11-18T08:46:27.580Z,81.49
2017-11-18T08:48:55.010Z,81.52
2017-11-18T08:51:22.429Z,81.23
2017-11-18T08:53:49.849Z,80.86
2017-11-18T08:56:17.285Z,80.54
2017-11-18T08:58:44.768Z,79.92
2017-11-18T09:01:12.244Z,80.01
2017-11-18T09:03:39.627Z,79.55
2017-11-18T09:06:07.027Z,80.12
2017-11-18T09:08:34.431Z,79.44
2017-11-18T09:11:01.840Z,79.87
2017-11-18T09:13:29.248Z,79.99
2017-11-18T09:15:56.655Z,79.19
2017-11-18T09:18:24.057Z,79.23
2017-11-18T09:20:51.495Z,79.33
2017-11-18T09:23:18.888Z,79.17
2017-11-18T09:25:46.316Z,78.88
2017-11-18T09:28:13.705Z,78.01
2017-11-18T09:30:41.160Z,78.56
2017-11-18T09:33:08.603Z,78.28
2017-11-18T09:35:35.998Z,78.61
2017-11-18T09:38:03.440Z,78.12
2017-11-18T09:40:30.841Z,77.82
2017-11-18T09:42:58.285Z,78.24
2017-11-18T09:45:25.731Z,77.93
2017-11-18T09:47:53.131Z,77.46
2017-11-18T09:50:20.553Z,77.60
2017-11-18T09:52:47.964Z,77.38
2017-11-18T09:55:15.411Z,77.69
2017-11-18T09:57:42.832Z,76.54
2017-11-18T10:00:11.069Z,76.62
2017-11-18T10:02:38.479Z,77.27
2017-11-18T10:05:05.873Z,75.90
2017-11-18T10:07:35.173Z,76.96
2017-11-18T10:10:02.647Z,76.04
2017-11-18T10:12:30.063Z,76.74
2017-11-18T10:14:57.493Z,76.46
2017-11-18T10:17:24.909Z,75.84
2017-11-18T10:19:52.580Z,76.08
2017-11-18T10:22:20.041Z,76.13
2017-11-18T10:24:47.463Z,76.07
2017-11-18T10:27:14.915Z,75.92
2017-11-18T10:29:42.314Z,75.27
2017-11-18T10:32:09.711Z,75.37
2017-11-18T10:34:40.190Z,75.95
2017-11-18T10:37:07.591Z,75.76
2017-11-18T10:39:35.024Z,76.07
2017-11-18T10:42:02.419Z,76.67
2017-11-18T10:44:29.828Z,76.40
2017-11-18T10:46:57.261Z,76.22
2017-11-18T10:49:25.651Z,76.97
2017-11-18T10:51:53.065Z,76.20
2017-11-18T10:54:20.492Z,75.73
2017-11-18T10:56:47.890Z,75.70
2017-11-18T10:59:15.273Z,75.03
2017-11-18T11:01:42.668Z,75.70
2017-11-18T11:04:10.074Z,74.88
2017-11-18T11:06:37.471Z,74.94
2017-11-18T11:09:04.898Z,74.55
2017-11-18T11:11:32.331Z,74.04
2017-11-18T11:13:59.727Z,73.75
2017-11-18T11:16:27.128Z,73.93
2017-11-18T11:18:54.584Z,74.28
2017-11-18T11:21:21.984Z,73.53
2017-11-18T11:23:49.369Z,73.79
2017-11-18T11:26:16.760Z,73.31
2017-11-18T11:28:44.155Z,73.07
2017-11-18T11:31:11.544Z,73.77
2017-11-18T11:33:38.952Z,73.13
2017-11-18T11:36:06.343Z,73.21
2017-11-18T11:38:33.736Z,72.15
2017-11-18T11:41:01.135Z,72.91
2017-11-18T11:43:28.522Z,72.69
2017-11-18T11:45:55.920Z,72.26
2017-11-18T11:48:23.312Z,72.52
2017-11-18T11:50:50.711Z,72.05
2017-11-18T11:53:18.146Z,71.79
2017-11-18T11:55:45.541Z,71.20
2017-11-18T11:58:12.927Z,72.81
2017-11-18T12:00:40.331Z,71.44
2017-11-18T12:03:07.711Z,71.45
2017-11-18T12:05:35.116Z,71.38
2017-11-18T12:08:02.512Z,71.19
2017-11-18T12:10:29.905Z,71.81
2017-11-18T12:12:57.303Z,71.84
2017-11-18T12:15:24.700Z,71.55
2017-11-18T12:17:52.103Z,71.80
2017-11-18T12:20:19.518Z,71.43
2017-11-18T12:22:46.903Z,70.91
2017-11-18T12:25:14.300Z,71.61
2017-11-18T12:27:41.700Z,71.54
2017-11-18T12:30:09.111Z,70.62
2017-11-18T12:32:36.503Z,70.01
2017-11-18T12:35:03.896Z,70.54
2017-11-18T12:37:31.291Z,70.34
2017-11-18T12:39:58.686Z,70.43
2017-11-18T12:42:26.083Z,69.88
2017-11-18T12:44:53.505Z,69.95
2017-11-18T12:47:20.899Z,70.90
2017-11-18T12:49:48.296Z,69.25
2017-11-18T12:52:15.684Z,69.34
2017-11-18T12:54:44.047Z,69.36
2017-11-18T12:57:11.459Z,69.77
2017-11-18T12:59:38.855Z,69.65
2017-11-18T13:02:06.261Z,69.47
2017-11-18T13:04:33.639Z,69.62
2017-11-18T13:07:01.040Z,69.25
2017-11-18T13:09:28.459Z,69.73
2017-11-18T13:11:55.861Z,69.10
2017-11-18T13:14:23.628Z,69.04
2017-11-18T13:16:51.056Z,68.44
2017-11-18T13:19:18.436Z,68.69
2017-11-18T13:21:45.832Z,68.79
2017-11-18T13:24:13.241Z,68.80
2017-11-18T13:26:40.627Z,67.80
2017-11-18T13:29:08.029Z,68.11
2017-11-18T13:31:35.491Z,66.94
2017-11-18T13:34:02.901Z,66.63
2017-11-18T13:36:30.288Z,66.29
2017-11-18T13:38:58.343Z,67.03
2017-11-18T13:41:25.744Z,66.73
2017-11-18T13:43:54.104Z,67.61
2017-11-18T13:46:21.500Z,68.09
2017-11-18T13:48:48.979Z,67.57
2017-11-18T13:51:16.376Z,69.37
2017-11-18T13:53:43.763Z,66.92
2017-11-18T13:56:11.241Z,67.14
2017-11-18T13:58:39.658Z,67.32
2017-11-18T14:01:07.056Z,68.41
2017-11-18T14:03:34.452Z,68.67
2017-11-18T14:06:01.972Z,69.07
2017-11-18T14:08:29.388Z,68.95
2017-11-18T14:10:56.855Z,69.03
2017-11-18T14:13:24.239Z,69.63
2017-11-18T14:15:51.723Z,69.01
2017-11-18T14:18:19.108Z,69.51
2017-11-18T14:20:46.512Z,69.29
2017-11-18T14:23:13.927Z,69.14
2017-11-18T14:25:41.336Z,70.12
2017-11-18T14:28:09.570Z,70.42
2017-11-18T14:30:36.961Z,69.79
2017-11-18T14:33:04.769Z,69.94
2017-11-18T14:35:32.172Z,70.24
2017-11-18T14:37:59.564Z,70.66
2017-11-18T14:40:26.959Z,70.43
2017-11-18T14:42:55.144Z,70.94
2017-11-18T14:45:22.545Z,71.62
2017-11-18T14:47:50.856Z,71.04
2017-11-18T14:50:18.297Z,70.74
2017-11-18T14:52:45.693Z,70.56
2017-11-18T14:55:13.087Z,71.47
2017-11-18T14:57:47.026Z,71.59
2017-11-18T15:00:14.907Z,71.53
2017-11-18T15:02:43.484Z,71.84
2017-11-18T15:05:10.862Z,71.98
2017-11-18T15:07:38.272Z,72.17
2017-11-18T15:10:05.656Z,72.02
2017-11-18T15:12:33.811Z,72.36
2017-11-18T15:15:06.877Z,72.61
2017-11-18T15:17:40.928Z,72.82
2017-11-18T15:20:13.896Z,72.62
2017-11-18T15:22:44.599Z,72.88
2017-11-18T15:25:17.500Z,72.67
2017-11-18T15:27:50.584Z,72.67
2017-11-18T15:30:24.402Z,73.09
2017-11-18T15:33:05.566Z,73.40
2017-11-18T15:35:38.350Z,73.78
2017-11-18T15:41:12.667Z,74.44
2017-11-18T15:47:04.680Z,75.07
2017-11-18T15:49:37.802Z,75.10
2017-11-18T15:52:05.660Z,74.96
2017-11-18T15:57:37.935Z,74.99
2017-11-18T16:00:06.499Z,75.07
2017-11-18T16:02:35.417Z,75.26
2017-11-18T16:05:12.724Z,75.28
2017-11-18T16:07:43.520Z,75.87
2017-11-18T16:10:19.078Z,75.93
2017-11-18T16:12:46.485Z,76.15
2017-11-18T16:15:13.907Z,76.25
2017-11-18T16:17:41.304Z,76.03
2017-11-18T16:20:08.687Z,75.86
2017-11-18T16:22:36.088Z,76.06
2017-11-18T16:25:03.478Z,76.14
2017-11-18T16:27:30.867Z,75.97
2017-11-18T16:29:58.256Z,75.71
2017-11-18T16:32:25.661Z,76.05
2017-11-18T16:34:53.053Z,77.59
2017-11-18T16:37:21.634Z,78.26
2017-11-18T16:39:50.248Z,78.62
2017-11-18T16:42:17.717Z,78.46
2017-11-18T16:44:54.924Z,77.89
2017-11-18T16:47:22.344Z,77.95
2017-11-18T16:49:50.271Z,78.52
2017-11-18T16:52:23.124Z,77.98
2017-11-18T16:54:50.520Z,78.29
2017-11-18T16:57:17.950Z,78.54
2017-11-18T16:59:45.352Z,77.98
2017-11-18T17:02:13.203Z,77.61
2017-11-18T17:04:41.063Z,77.62
2017-11-18T17:07:08.468Z,77.58
2017-11-18T17:09:35.879Z,77.77
2017-11-18T17:12:03.271Z,77.61
2017-11-18T17:14:30.664Z,77.60
2017-11-18T17:16:58.061Z,77.87
2017-11-18T17:19:25.452Z,77.99
2017-11-18T17:21:52.840Z,77.58
2017-11-18T17:24:20.239Z,77.87
2017-11-18T17:26:47.631Z,78.32
2017-11-18T17:29:15.040Z,77.60
2017-11-18T17:31:42.429Z,77.62
2017-11-18T17:34:09.816Z,78.34
2017-11-18T17:36:37.211Z,78.55
2017-11-18T17:39:04.611Z,78.46
2017-11-18T17:41:32.038Z,78.57
2017-11-18T17:43:59.439Z,78.56
2017-11-18T17:46:26.844Z,78.37
2017-11-18T17:48:54.239Z,78.24
2017-11-18T17:51:21.623Z,77.90
2017-11-18T17:53:49.032Z,78.16
2017-11-18T17:56:16.416Z,78.21
2017-11-18T17:58:43.812Z,78.27
2017-11-18T18:01:11.204Z,78.16
2017-11-18T18:03:38.604Z,78.17
2017-11-18T18:06:05.997Z,78.46
2017-11-18T18:08:33.392Z,78.36
2017-11-18T18:11:00.788Z,78.42
2017-11-18T18:13:28.179Z,78.40
2017-11-18T18:15:55.571Z,78.36
2017-11-18T18:18:22.968Z,78.87
2017-11-18T18:20:50.375Z,79.23
2017-11-18T18:23:17.776Z,79.10
2017-11-18T18:25:45.175Z,79.32
2017-11-18T18:28:12.584Z,79.81
2017-11-18T18:30:39.977Z,79.77
2017-11-18T18:33:07.379Z,79.81
2017-11-18T18:35:34.759Z,79.77
2017-11-18T18:38:02.164Z,79.85
2017-11-18T18:40:29.577Z,80.17
2017-11-18T18:42:56.967Z,79.78
2017-11-18T18:45:24.368Z,80.11
2017-11-18T18:47:51.780Z,79.68
2017-11-18T18:50:19.167Z,79.60
2017-11-18T18:52:46.559Z,79.72
2017-11-18T18:55:13.983Z,79.96
2017-11-18T18:57:41.363Z,79.77
2017-11-18T19:00:08.765Z,79.73
2017-11-18T19:02:36.164Z,79.84
2017-11-18T19:05:03.556Z,80.04
2017-11-18T19:07:30.948Z,80.55
2017-11-18T19:09:58.344Z,79.12
2017-11-18T19:12:25.739Z,79.75
2017-11-18T19:14:53.127Z,80.62
2017-11-18T19:17:20.537Z,81.46
2017-11-18T19:19:47.928Z,83.91
2017-11-18T19:22:15.320Z,87.36
2017-11-18T19:24:42.748Z,89.63
2017-11-18T19:27:10.145Z,91.36
2017-11-18T19:29:37.838Z,91.48
2017-11-18T19:32:05.240Z,92.25
2017-11-18T19:34:32.643Z,91.83
2017-11-18T19:37:00.039Z,91.52
2017-11-18T19:39:27.447Z,91.67
2017-11-18T19:41:54.843Z,91.26
2017-11-18T19:44:22.251Z,92.17
2017-11-18T19:46:49.652Z,92.15
2017-11-18T19:49:17.055Z,92.86
2017-11-18T19:51:44.454Z,93.54
2017-11-18T19:54:11.847Z,93.77
2017-11-18T19:56:40.203Z,93.82
2017-11-18T19:59:07.611Z,93.84
2017-11-18T20:01:35.025Z,94.04
2017-11-18T20:04:02.423Z,93.85
2017-11-18T20:06:29.848Z,93.94
2017-11-18T20:08:57.267Z,94.25
2017-11-18T20:11:37.952Z,94.36
2017-11-18T20:14:05.400Z,94.27
2017-11-18T20:16:32.772Z,94.16
2017-11-18T20:19:00.163Z,94.01
2017-11-18T20:21:27.560Z,94.21
2017-11-18T20:23:55.012Z,94.10
2017-11-18T20:26:22.396Z,93.87
2017-11-18T20:28:49.791Z,93.72
2017-11-18T20:31:17.247Z,93.57
2017-11-18T20:33:44.633Z,93.36
2017-11-18T20:36:12.028Z,93.27
2017-11-18T20:38:39.491Z,93.13
2017-11-18T20:41:06.921Z,93.03
2017-11-18T20:43:40.854Z,93.13
2017-11-18T20:46:08.272Z,93.19
2017-11-18T20:48:36.548Z,93.14
2017-11-18T20:51:03.939Z,93.19
2017-11-18T20:53:32.368Z,93.17
2017-11-18T20:55:59.876Z,93.13
2017-11-18T20:58:27.276Z,93.09
2017-11-18T21:00:54.667Z,92.94
2017-11-18T21:03:22.059Z,92.86
2017-11-18T21:05:49.466Z,92.85
2017-11-18T21:08:16.871Z,92.82
2017-11-18T21:10:44.263Z,92.75
2017-11-18T21:13:11.651Z,92.82
2017-11-18T21:15:39.053Z,92.82
2017-11-18T21:18:06.446Z,92.83
2017-11-18T21:20:33.841Z,92.95
2017-11-18T21:23:01.228Z,92.68
2017-11-18T21:25:28.628Z,92.10
2017-11-18T21:27:56.936Z,91.92
2017-11-18T21:30:24.378Z,91.78
2017-11-18T21:32:51.760Z,91.89
2017-11-18T21:35:19.195Z,92.01
2017-11-18T21:37:47.292Z,92.43
2017-11-18T21:40:14.684Z,92.73
2017-11-18T21:42:42.075Z,92.74
2017-11-18T21:45:09.471Z,92.53
2017-11-18T21:47:36.879Z,92.82
2017-11-18T21:50:04.264Z,92.51
2017-11-18T21:52:31.658Z,92.83
2017-11-18T21:54:59.047Z,93.08
2017-11-18T21:57:26.444Z,93.40
2017-11-18T21:59:53.836Z,93.66
2017-11-18T22:02:21.232Z,93.77
2017-11-18T22:04:48.627Z,92.96
2017-11-18T22:07:16.019Z,92.95
2017-11-18T22:09:43.408Z,93.19
2017-11-18T22:12:10.800Z,93.45
2017-11-18T22:14:38.192Z,92.72
2017-11-18T22:17:05.592Z,92.32
2017-11-18T22:19:32.984Z,92.37
2017-11-18T22:22:00.401Z,92.75
2017-11-18T22:24:27.784Z,92.71
2017-11-18T22:26:55.176Z,93.04
2017-11-18T22:29:22.573Z,93.18
2017-11-18T22:31:49.956Z,93.33
2017-11-18T22:34:17.356Z,93.50
2017-11-18T22:36:44.747Z,93.48
2017-11-18T22:39:12.149Z,93.42
2017-11-18T22:41:39.544Z,93.57
2017-11-18T22:44:06.935Z,93.66
2017-11-18T22:46:34.329Z,93.57
2017-11-18T22:49:01.717Z,93.62
2017-11-18T22:51:29.115Z,93.44
2017-11-18T22:53:56.504Z,93.23
2017-11-18T22:56:23.909Z,93.47
2017-11-18T22:58:51.308Z,93.25
2017-11-18T23:01:18.727Z,93.16
2017-11-18T23:03:46.123Z,93.23
2017-11-18T23:06:13.515Z,92.94
2017-11-18T23:08:40.912Z,92.30
2017-11-18T23:11:08.305Z,92.55
2017-11-18T23:13:35.703Z,92.39
2017-11-18T23:16:03.095Z,92.47
2017-11-18T23:18:30.479Z,92.73
2017-11-18T23:20:57.876Z,92.79
2017-11-18T23:23:25.267Z,92.74
2017-11-18T23:25:52.663Z,92.45
2017-11-18T23:28:20.054Z,92.56
2017-11-18T23:30:47.477Z,92.58
2017-11-18T23:33:14.834Z,92.80
2017-11-18T23:35:42.249Z,93.05
2017-11-18T23:38:09.643Z,93.41
2017-11-18T23:40:37.036Z,93.46
2017-11-18T23:43:04.440Z,93.55
2017-11-18T23:45:31.832Z,93.64
2017-11-18T23:47:59.233Z,93.50
2017-11-18T23:50:26.623Z,93.38
2017-11-18T23:52:54.015Z,93.57
2017-11-18T23:55:21.408Z,93.46
2017-11-18T23:57:48.806Z,93.57
